Time;durP1;ratioP1;P1;durP2;ratioP2;P2;SDS_P1;SDS_P2;PMS_P1;PMS_P2;Temp;Humidity;BMP_temperature;BMP_pressure;BME280_temperature;BME280_humidity;BME280_pressure;Samples;Min_cycle;Max_cycle;Signal;HPM_P1;HPM_P2
2021/12/07 00:01:46;;;;;;;24.10;17.52;;;;;;;;;;5052013;28;20205;-87
2021/12/07 00:04:13;;;;;;;24.42;18.52;;;;;;;;;;5065871;28;20052;-87
2021/12/07 00:06:41;;;;;;;27.67;18.98;;;;;;;;;;5045899;28;20378;-86
2021/12/07 00:09:14;;;;;;;25.40;18.33;;;;;;;;;;5047399;28;20084;-86
2021/12/07 00:11:41;;;;;;;25.38;18.38;;;;;;;;;;5033541;27;20035;-86
2021/12/07 00:14:15;;;;;;;22.83;17.70;;;;;;;;;;5072978;28;20044;-86
2021/12/07 00:16:54;;;;;;;22.73;16.83;;;;;;;;;;5043641;27;20079;-86
2021/12/07 00:19:23;;;;;;;26.63;17.83;;;;;;;;;;5064207;27;20044;-86
2021/12/07 00:21:49;;;;;;;25.13;18.33;;;;;;;;;;5058665;27;20044;-87
2021/12/07 00:24:16;;;;;;;23.52;17.13;;;;;;;;;;5057971;28;20043;-87
2021/12/07 00:26:45;;;;;;;26.65;16.75;;;;;;;;;;5054844;28;20058;-87
2021/12/07 00:29:12;;;;;;;24.33;17.60;;;;;;;;;;5047472;28;20040;-87
2021/12/07 00:31:46;;;;;;;25.15;17.55;;;;;;;;;;5039858;28;20557;-87
2021/12/07 00:36:47;;;;;;;25.13;17.45;;;;;;;;;;5091310;27;20704;-87
2021/12/07 00:39:15;;;;;;;24.55;18.08;;;;;;;;;;5059570;28;20368;-87
2021/12/07 00:41:41;;;;;;;25.40;17.92;;;;;;;;;;5032595;28;20101;-87
2021/12/07 00:44:07;;;;;;;26.33;17.77;;;;;;;;;;5064672;28;20044;-88
2021/12/07 00:46:34;;;;;;;28.85;19.08;;;;;;;;;;5050954;28;20040;-87
2021/12/07 00:49:00;;;;;;;25.88;18.20;;;;;;;;;;5066464;28;20572;-87
2021/12/07 00:51:27;;;;;;;28.02;18.33;;;;;;;;;;5067308;28;20072;-87
2021/12/07 00:53:54;;;;;;;24.52;17.45;;;;;;;;;;5065255;28;20047;-87
2021/12/07 00:56:21;;;;;;;25.35;17.95;;;;;;;;;;5043345;28;20055;-87
2021/12/07 00:58:48;;;;;;;26.50;17.25;;;;;;;;;;5046811;28;20134;-87
2021/12/07 01:01:15;;;;;;;25.98;17.88;;;;;;;;;;5041820;28;20048;-87
2021/12/07 01:03:41;;;;;;;28.08;18.60;;;;;;;;;;5035673;28;20083;-87
2021/12/07 01:25:13;;;;;;;25.43;17.20;;;;;;;;;;5030520;28;20059;-87
2021/12/07 01:27:45;;;;;;;25.73;17.75;;;;;;;;;;5028946;28;20032;-87
2021/12/07 01:30:19;;;;;;;22.10;16.42;;;;;;;;;;5034174;28;20062;-87
2021/12/07 01:40:52;;;;;;;27.00;17.40;;;;;;;;;;5052443;27;20053;-87
2021/12/07 01:51:48;;;;;;;27.35;18.13;;;;;;;;;;5066582;27;20043;-87
2021/12/07 01:59:48;;;;;;;25.65;17.50;;;;;;;;;;5059099;27;20039;-87
2021/12/07 02:02:30;;;;;;;25.73;17.17;;;;;;;;;;5068273;27;20083;-87
2021/12/07 02:04:56;;;;;;;26.63;17.73;;;;;;;;;;5060160;27;20168;-86
2021/12/07 02:07:26;;;;;;;24.10;16.83;;;;;;;;;;5067377;28;20043;-86
2021/12/07 02:09:56;;;;;;;30.33;19.48;;;;;;;;;;5067415;28;20043;-86
2021/12/07 02:12:28;;;;;;;28.02;18.20;;;;;;;;;;5033165;27;20082;-86
2021/12/07 02:15:04;;;;;;;26.40;18.23;;;;;;;;;;5065598;27;20044;-87
2021/12/07 02:17:33;;;;;;;28.65;19.38;;;;;;;;;;5065809;28;20043;-86
2021/12/07 02:20:02;;;;;;;29.17;19.20;;;;;;;;;;5064081;28;20473;-85
2021/12/07 02:22:30;;;;;;;28.23;18.85;;;;;;;;;;5047589;28;20051;-86
2021/12/07 02:24:56;;;;;;;28.33;18.67;;;;;;;;;;5066614;28;20134;-86
2021/12/07 02:27:23;;;;;;;26.65;17.63;;;;;;;;;;5062630;28;20048;-85
2021/12/07 02:29:49;;;;;;;29.73;18.38;;;;;;;;;;5084623;28;20311;-86
2021/12/07 02:32:15;;;;;;;29.50;19.52;;;;;;;;;;5067289;28;20052;-86
2021/12/07 02:34:52;;;;;;;27.15;18.05;;;;;;;;;;5073000;28;20844;-85
2021/12/07 02:37:21;;;;;;;23.77;17.47;;;;;;;;;;5067381;28;20083;-85
2021/12/07 02:39:47;;;;;;;25.52;17.55;;;;;;;;;;5066282;28;20059;-85
2021/12/07 02:42:15;;;;;;;22.85;16.92;;;;;;;;;;5067452;28;20048;-85
2021/12/07 02:44:41;;;;;;;26.10;18.10;;;;;;;;;;5038633;28;20051;-85
2021/12/07 02:47:07;;;;;;;25.65;18.40;;;;;;;;;;5048500;28;20123;-84
2021/12/07 02:49:34;;;;;;;23.83;16.20;;;;;;;;;;5055492;27;20043;-84
2021/12/07 02:52:02;;;;;;;26.92;18.25;;;;;;;;;;5034248;28;20042;-84
2021/12/07 02:54:28;;;;;;;;;;;;;;;;;;5065781;27;20043;-85
2021/12/07 02:56:56;;;;;;;25.33;16.83;;;;;;;;;;5050223;28;19931;-84
2021/12/07 02:59:26;;;;;;;26.75;18.67;;;;;;;;;;5051183;28;20039;-85
2021/12/07 03:02:02;;;;;;;24.55;18.27;;;;;;;;;;5048736;28;20486;-85
2021/12/07 03:04:39;;;;;;;22.90;17.65;;;;;;;;;;5052801;27;20134;-85
2021/12/07 03:28:33;;;;;;;28.88;19.92;;;;;;;;;;5074740;28;20048;-85
2021/12/07 03:31:00;;;;;;;29.23;20.05;;;;;;;;;;5054154;27;20040;-85
2021/12/07 03:33:26;;;;;;;31.00;21.10;;;;;;;;;;5073303;27;20040;-84
2021/12/07 03:35:53;;;;;;;30.10;20.35;;;;;;;;;;5059300;27;20075;-85
2021/12/07 03:38:19;;;;;;;28.23;20.20;;;;;;;;;;5067179;28;20063;-85
2021/12/07 03:40:48;;;;;;;28.65;21.33;;;;;;;;;;5037947;28;20044;-85
2021/12/07 03:43:15;;;;;;;32.53;21.27;;;;;;;;;;5071640;27;20058;-85
2021/12/07 03:45:41;;;;;;;26.92;20.50;;;;;;;;;;5042570;27;20067;-85
2021/12/07 03:48:08;;;;;;;32.17;21.85;;;;;;;;;;5087241;27;20035;-85
2021/12/07 03:50:34;;;;;;;32.15;21.38;;;;;;;;;;5074014;27;20135;-85
2021/12/07 03:53:00;;;;;;;30.55;20.90;;;;;;;;;;5065449;28;20104;-85
2021/12/07 03:55:27;;;;;;;34.47;22.38;;;;;;;;;;5092562;27;21209;-85
2021/12/07 03:57:53;;;;;;;31.88;21.15;;;;;;;;;;5055611;28;20044;-85
2021/12/07 04:00:20;;;;;;;31.90;21.58;;;;;;;;;;5053899;27;20620;-84
2021/12/07 04:02:48;;;;;;;33.40;22.00;;;;;;;;;;5078144;27;20109;-84
2021/12/07 04:05:17;;;;;;;33.90;22.80;;;;;;;;;;5056547;28;20047;-84
2021/12/07 04:07:43;;;;;;;34.67;22.35;;;;;;;;;;5067673;27;20079;-85
2021/12/07 04:10:10;;;;;;;33.35;22.88;;;;;;;;;;5075781;28;20047;-85
2021/12/07 04:12:36;;;;;;;35.55;23.15;;;;;;;;;;5060164;27;20139;-85
2021/12/07 04:15:03;;;;;;;39.05;24.13;;;;;;;;;;5071967;27;20048;-85
2021/12/07 04:17:29;;;;;;;34.25;23.65;;;;;;;;;;5043495;28;20043;-85
2021/12/07 04:19:55;;;;;;;36.08;23.80;;;;;;;;;;5077153;27;20067;-86
2021/12/07 04:22:24;;;;;;;36.60;23.13;;;;;;;;;;5035995;28;20083;-86
2021/12/07 04:24:50;;;;;;;37.67;23.23;;;;;;;;;;5090463;28;20176;-85
2021/12/07 04:27:16;;;;;;;37.83;23.33;;;;;;;;;;5086664;27;20048;-86
2021/12/07 04:29:42;;;;;;;36.28;22.80;;;;;;;;;;5074469;27;20032;-85
2021/12/07 04:32:09;;;;;;;35.03;23.20;;;;;;;;;;5073251;27;20047;-85
2021/12/07 04:34:35;;;;;;;38.65;24.35;;;;;;;;;;5076481;28;20051;-85
2021/12/07 04:37:03;;;;;;;39.47;24.48;;;;;;;;;;5059269;27;20126;-86
2021/12/07 04:39:30;;;;;;;35.20;22.52;;;;;;;;;;5045932;27;20054;-85
2021/12/07 04:41:56;;;;;;;33.92;22.75;;;;;;;;;;5062328;27;20043;-85
2021/12/07 04:44:23;;;;;;;38.38;23.80;;;;;;;;;;5070844;27;20119;-84
2021/12/07 04:49:49;;;;;;;36.80;23.33;;;;;;;;;;5057605;27;21247;-85
2021/12/07 04:57:48;;;;;;;40.13;23.45;;;;;;;;;;5066373;27;20501;-86
2021/12/07 05:00:17;;;;;;;35.80;22.13;;;;;;;;;;5068384;27;20044;-86
2021/12/07 05:02:46;;;;;;;36.28;21.70;;;;;;;;;;5060099;27;20040;-85
2021/12/07 05:05:15;;;;;;;35.42;21.27;;;;;;;;;;5053785;27;20043;-85
2021/12/07 05:07:47;;;;;;;34.97;22.08;;;;;;;;;;5057069;27;20385;-86
2021/12/07 05:10:22;;;;;;;36.70;21.17;;;;;;;;;;5034315;28;20108;-85
2021/12/07 05:39:34;;;;;;;30.67;17.42;;;;;;;;;;5088911;27;20532;-87
2021/12/07 05:42:01;;;;;;;28.42;18.25;;;;;;;;;;5059050;27;20047;-87
2021/12/07 05:44:27;;;;;;;32.28;18.77;;;;;;;;;;5063234;27;20043;-86
2021/12/07 05:46:53;;;;;;;30.48;18.90;;;;;;;;;;5042985;27;20044;-86
2021/12/07 05:49:19;;;;;;;30.05;19.10;;;;;;;;;;5038338;28;20083;-86
2021/12/07 05:51:45;;;;;;;34.92;19.48;;;;;;;;;;5053107;28;20032;-86
2021/12/07 05:54:11;;;;;;;30.13;18.05;;;;;;;;;;5053504;27;20052;-85
2021/12/07 05:56:39;;;;;;;31.83;18.92;;;;;;;;;;5057675;27;20047;-86
2021/12/07 05:59:05;;;;;;;25.77;17.00;;;;;;;;;;5033862;28;20050;-86
2021/12/07 06:01:31;;;;;;;29.77;18.70;;;;;;;;;;5056756;28;20121;-88
2021/12/07 06:03:57;;;;;;;32.33;18.73;;;;;;;;;;5041345;27;20090;-87
2021/12/07 06:06:23;;;;;;;28.80;18.38;;;;;;;;;;5068844;27;20122;-87
2021/12/07 06:08:49;;;;;;;31.17;18.95;;;;;;;;;;5038969;27;20047;-88
2021/12/07 06:11:15;;;;;;;28.75;18.08;;;;;;;;;;5068279;28;20047;-87
2021/12/07 06:13:42;;;;;;;33.63;18.98;;;;;;;;;;5041219;28;20507;-87
2021/12/07 06:16:08;;;;;;;29.55;17.50;;;;;;;;;;5024049;28;20608;-87
2021/12/07 06:18:36;;;;;;;33.30;20.33;;;;;;;;;;5027359;27;20640;-87
2021/12/07 06:21:02;;;;;;;34.85;18.88;;;;;;;;;;5043779;28;20047;-86
2021/12/07 06:23:28;;;;;;;29.50;18.52;;;;;;;;;;5040348;28;20135;-87
2021/12/07 06:25:59;;;;;;;34.20;19.85;;;;;;;;;;5037005;27;20406;-88
2021/12/07 06:28:26;;;;;;;38.60;18.42;;;;;;;;;;5043559;27;20477;-87
2021/12/07 06:30:52;;;;;;;31.63;18.63;;;;;;;;;;5043503;28;20385;-86
2021/12/07 06:33:22;;;;;;;29.42;17.63;;;;;;;;;;5061621;28;20148;-88
2021/12/07 06:35:56;;;;;;;37.95;20.38;;;;;;;;;;5040709;28;20405;-88
2021/12/07 06:38:23;;;;;;;28.02;17.65;;;;;;;;;;5057707;28;20129;-88
2021/12/07 06:40:51;;;;;;;33.20;17.90;;;;;;;;;;5067048;28;20054;-88
2021/12/07 06:43:24;;;;;;;33.05;18.25;;;;;;;;;;5067053;28;20044;-88
2021/12/07 06:45:50;;;;;;;31.13;18.77;;;;;;;;;;5053391;28;20047;-87
2021/12/07 06:48:16;;;;;;;29.13;17.67;;;;;;;;;;5038345;28;20044;-87
2021/12/07 06:50:43;;;;;;;31.08;17.48;;;;;;;;;;5043615;28;20067;-87
2021/12/07 06:53:09;;;;;;;29.70;18.02;;;;;;;;;;5055985;28;20035;-85
2021/12/07 06:55:36;;;;;;;28.30;16.88;;;;;;;;;;5045777;28;20039;-88
2021/12/07 06:58:02;;;;;;;32.90;17.63;;;;;;;;;;5038334;28;20040;-86
2021/12/07 07:00:31;;;;;;;32.78;17.65;;;;;;;;;;5055414;28;20051;-87
2021/12/07 07:03:09;;;;;;;36.13;17.60;;;;;;;;;;5058526;28;20101;-86
2021/12/07 07:05:35;;;;;;;34.90;17.98;;;;;;;;;;5066361;28;20055;-87
2021/12/07 07:08:02;;;;;;;28.52;16.95;;;;;;;;;;5042110;28;20567;-87
2021/12/07 07:10:28;;;;;;;29.27;16.83;;;;;;;;;;5058718;28;20047;-87
2021/12/07 07:12:54;;;;;;;29.73;17.15;;;;;;;;;;5060022;28;20123;-87
2021/12/07 07:15:20;;;;;;;33.13;17.27;;;;;;;;;;5042663;28;20047;-87
2021/12/07 07:17:46;;;;;;;31.05;16.85;;;;;;;;;;5059534;28;20040;-87
2021/12/07 07:20:13;;;;;;;33.30;16.23;;;;;;;;;;5071763;28;20386;-87
2021/12/07 07:22:39;;;;;;;29.27;16.42;;;;;;;;;;5059477;28;20125;-87
2021/12/07 07:25:06;;;;;;;27.27;16.30;;;;;;;;;;5056127;28;20054;-87
2021/12/07 07:27:32;;;;;;;32.40;16.85;;;;;;;;;;5039081;28;20040;-87
2021/12/07 07:29:58;;;;;;;30.13;17.02;;;;;;;;;;5052239;28;20050;-86
2021/12/07 07:32:24;;;;;;;31.27;17.48;;;;;;;;;;5046381;28;20409;-87
2021/12/07 07:34:50;;;;;;;30.17;18.38;;;;;;;;;;5043116;28;20726;-87
2021/12/07 07:37:17;;;;;;;40.60;19.83;;;;;;;;;;5051111;28;20281;-85
2021/12/07 07:39:43;;;;;;;34.42;19.00;;;;;;;;;;5059576;28;20475;-85
2021/12/07 07:42:10;;;;;;;33.10;18.60;;;;;;;;;;5068089;28;20070;-84
2021/12/07 07:44:36;;;;;;;29.02;18.33;;;;;;;;;;5055700;28;20132;-84
2021/12/07 07:47:04;;;;;;;42.22;19.73;;;;;;;;;;5081931;28;20101;-84
2021/12/07 07:49:30;;;;;;;;;;;;;;;;;;5058859;28;20035;-84
2021/12/07 07:51:57;;;;;;;35.85;17.90;;;;;;;;;;5078175;28;19922;-84
2021/12/07 07:54:23;;;;;;;34.65;19.05;;;;;;;;;;5060909;28;20039;-84
2021/12/07 07:56:50;;;;;;;33.13;18.33;;;;;;;;;;5076632;28;20055;-84
2021/12/07 07:59:16;;;;;;;32.28;17.65;;;;;;;;;;5061788;28;20100;-85
2021/12/07 08:01:43;;;;;;;37.22;18.48;;;;;;;;;;5076206;28;20155;-84
2021/12/07 08:04:09;;;;;;;36.28;18.63;;;;;;;;;;5063463;28;20058;-84
2021/12/07 08:06:35;;;;;;;30.25;17.70;;;;;;;;;;5063421;28;20083;-85
2021/12/07 08:09:03;;;;;;;33.78;16.65;;;;;;;;;;5057850;28;20078;-84
2021/12/07 08:11:29;;;;;;;29.20;16.73;;;;;;;;;;5063039;28;20040;-85
2021/12/07 08:13:55;;;;;;;29.75;16.98;;;;;;;;;;5078150;28;20139;-85
2021/12/07 08:16:21;;;;;;;30.63;16.10;;;;;;;;;;5058735;28;20048;-84
2021/12/07 08:18:48;;;;;;;33.70;17.23;;;;;;;;;;5040665;28;20557;-84
2021/12/07 08:21:14;;;;;;;32.28;15.80;;;;;;;;;;5055952;28;20070;-84
2021/12/07 08:23:40;;;;;;;27.80;15.05;;;;;;;;;;5059526;28;20385;-85
2021/12/07 08:26:08;;;;;;;27.67;15.90;;;;;;;;;;5042096;28;20108;-85
2021/12/07 08:28:34;;;;;;;28.27;16.13;;;;;;;;;;5044186;28;20126;-85
2021/12/07 08:31:00;;;;;;;28.75;15.23;;;;;;;;;;5088380;28;20491;-85
2021/12/07 08:33:26;;;;;;;26.20;14.68;;;;;;;;;;5078470;28;20461;-85
2021/12/07 08:35:52;;;;;;;26.58;15.85;;;;;;;;;;5062470;27;20517;-85
2021/12/07 08:38:21;;;;;;;25.02;14.85;;;;;;;;;;5064478;28;22080;-85
2021/12/07 08:40:53;;;;;;;27.02;15.65;;;;;;;;;;5046874;28;20044;-85
2021/12/07 08:43:19;;;;;;;34.65;15.68;;;;;;;;;;5060045;28;20048;-84
2021/12/07 08:45:45;;;;;;;29.80;15.20;;;;;;;;;;5064076;28;20401;-85
2021/12/07 08:48:12;;;;;;;28.75;14.73;;;;;;;;;;5054051;28;20372;-86
2021/12/07 08:50:42;;;;;;;32.72;14.52;;;;;;;;;;5044892;28;20035;-84
2021/12/07 08:53:11;;;;;;;27.13;15.13;;;;;;;;;;5037783;28;20117;-85
2021/12/07 09:01:06;;;;;;;25.23;13.90;;;;;;;;;;5056618;28;20063;-85
2021/12/07 09:03:32;;;;;;;27.17;14.82;;;;;;;;;;5046396;28;20043;-85
2021/12/07 09:05:58;;;;;;;32.33;15.70;;;;;;;;;;5041842;28;20431;-84
2021/12/07 09:08:25;;;;;;;33.95;16.27;;;;;;;;;;5062208;27;20100;-85
2021/12/07 09:10:51;;;;;;;22.52;13.75;;;;;;;;;;5062236;28;20088;-86
2021/12/07 09:13:17;;;;;;;25.65;14.73;;;;;;;;;;5057603;28;20480;-86
2021/12/07 09:15:43;;;;;;;25.05;13.77;;;;;;;;;;5070907;28;20050;-85
2021/12/07 09:18:09;;;;;;;26.30;13.57;;;;;;;;;;5054392;28;20392;-85
2021/12/07 09:20:35;;;;;;;21.73;12.45;;;;;;;;;;5064387;28;20043;-86
2021/12/07 09:23:01;;;;;;;21.02;11.90;;;;;;;;;;5040491;28;20134;-86
2021/12/07 09:25:27;;;;;;;20.23;12.38;;;;;;;;;;5041690;28;20366;-86
2021/12/07 09:27:54;;;;;;;15.15;10.75;;;;;;;;;;5049468;27;20122;-85
2021/12/07 09:30:20;;;;;;;19.58;11.38;;;;;;;;;;5042434;28;20032;-86
2021/12/07 09:32:46;;;;;;;19.75;11.43;;;;;;;;;;5065989;28;20979;-87
2021/12/07 09:35:12;;;;;;;17.33;10.32;;;;;;;;;;5039039;28;20127;-85
2021/12/07 09:37:38;;;;;;;14.70;10.45;;;;;;;;;;5076152;28;20047;-85
2021/12/07 09:40:07;;;;;;;19.40;11.23;;;;;;;;;;5070740;28;20065;-86
2021/12/07 09:42:33;;;;;;;18.10;9.48;;;;;;;;;;5080936;28;20035;-85
2021/12/07 09:44:59;;;;;;;15.07;9.30;;;;;;;;;;5038572;28;20040;-86
2021/12/07 09:47:25;;;;;;;15.40;9.75;;;;;;;;;;5041384;28;20074;-87
2021/12/07 09:49:51;;;;;;;13.77;8.45;;;;;;;;;;5077657;28;20044;-86
2021/12/07 09:52:17;;;;;;;16.50;8.52;;;;;;;;;;5054134;28;20127;-84
2021/12/07 09:54:43;;;;;;;15.40;8.73;;;;;;;;;;5059895;28;20531;-84
2021/12/07 09:57:11;;;;;;;13.15;7.68;;;;;;;;;;5057754;28;20057;-83
2021/12/07 09:59:38;;;;;;;14.98;7.72;;;;;;;;;;5070555;28;20109;-83
2021/12/07 10:02:06;;;;;;;10.95;7.00;;;;;;;;;;5067863;28;20389;-84
2021/12/07 10:04:33;;;;;;;12.43;7.63;;;;;;;;;;5044533;27;20044;-85
2021/12/07 10:07:00;;;;;;;16.27;8.88;;;;;;;;;;5054173;28;20374;-85
2021/12/07 10:09:26;;;;;;;11.80;7.38;;;;;;;;;;5075424;28;20044;-86
2021/12/07 10:11:53;;;;;;;10.98;6.95;;;;;;;;;;5063937;28;20044;-85
2021/12/07 10:14:36;;;;;;;14.88;7.97;;;;;;;;;;5060143;28;20469;-83
2021/12/07 10:17:11;;;;;;;12.60;7.55;;;;;;;;;;5053353;28;20043;-83
2021/12/07 10:19:42;;;;;;;10.45;6.43;;;;;;;;;;5086916;28;20054;-82
2021/12/07 10:22:09;;;;;;;11.93;6.85;;;;;;;;;;5039518;28;20048;-82
2021/12/07 10:24:58;;;;;;;11.50;6.80;;;;;;;;;;5041834;28;20047;-82
2021/12/07 10:27:38;;;;;;;11.20;6.57;;;;;;;;;;5055227;28;20716;-82
2021/12/07 10:30:07;;;;;;;10.77;6.05;;;;;;;;;;5056202;28;20059;-82
2021/12/07 10:32:33;;;;;;;;;;;;;;;;;;5058925;27;20516;-83
2021/12/07 10:34:59;;;;;;;10.75;6.55;;;;;;;;;;5055992;28;19924;-82
2021/12/07 10:37:25;;;;;;;12.20;6.43;;;;;;;;;;5058050;28;20051;-81
2021/12/07 10:39:52;;;;;;;12.30;6.55;;;;;;;;;;5046437;28;20036;-82
2021/12/07 10:42:29;;;;;;;12.13;6.85;;;;;;;;;;5051322;28;21705;-82
2021/12/07 10:45:02;;;;;;;13.48;6.63;;;;;;;;;;5089185;28;20044;-81
2021/12/07 10:47:28;;;;;;;12.98;7.10;;;;;;;;;;5058407;28;20440;-82
2021/12/07 10:49:55;;;;;;;13.65;6.05;;;;;;;;;;5047897;28;20039;-82
2021/12/07 10:52:45;;;;;;;16.60;6.55;;;;;;;;;;5070468;28;20044;-82
2021/12/07 10:55:30;;;;;;;10.68;6.65;;;;;;;;;;5038669;28;20048;-83
2021/12/07 10:58:00;;;;;;;16.83;6.88;;;;;;;;;;5093390;28;20071;-82
2021/12/07 11:00:26;;;;;;;13.88;6.80;;;;;;;;;;5079537;28;20453;-83
2021/12/07 11:02:54;;;;;;;13.82;6.75;;;;;;;;;;5091593;28;20096;-83
2021/12/07 11:05:22;;;;;;;14.57;6.68;;;;;;;;;;5087663;28;20054;-82
2021/12/07 11:07:50;;;;;;;11.88;6.32;;;;;;;;;;5092253;28;20047;-82
2021/12/07 11:10:19;;;;;;;;;;;;;;;;;;5089835;28;20422;-83
2021/12/07 11:13:39;;;;;;;14.23;6.40;;;;;;;;;;5093119;28;19916;-82
2021/12/07 11:15:55;;;;;;;17.38;6.93;;;;;;;;;;5065476;28;20055;-83
2021/12/07 11:18:31;;;;;;;10.23;6.10;;;;;;;;;;5065024;28;20056;-82
2021/12/07 11:21:00;;;;;;;18.45;6.68;;;;;;;;;;5045789;28;20154;-82
2021/12/07 11:23:28;;;;;;;14.48;5.80;;;;;;;;;;5057213;28;20490;-82
2021/12/07 11:31:28;;;;;;;10.40;4.68;;;;;;;;;;5078382;28;20054;-81
2021/12/07 11:33:55;;;;;;;11.48;4.82;;;;;;;;;;5104125;27;20059;-81
2021/12/07 11:36:21;;;;;;;11.27;5.05;;;;;;;;;;5075962;28;20051;-82
2021/12/07 11:38:48;;;;;;;10.45;4.90;;;;;;;;;;5077654;28;20149;-82
2021/12/07 11:41:22;;;;;;;14.43;5.15;;;;;;;;;;5080278;28;20046;-81
2021/12/07 11:43:52;;;;;;;8.80;3.88;;;;;;;;;;5077512;27;20039;-81
2021/12/07 11:46:19;;;;;;;12.52;3.95;;;;;;;;;;5062219;27;20469;-81
2021/12/07 11:48:46;;;;;;;9.82;4.70;;;;;;;;;;5079426;27;20043;-81
2021/12/07 11:51:13;;;;;;;9.48;3.95;;;;;;;;;;5074129;28;20043;-81
2021/12/07 11:53:40;;;;;;;9.65;4.03;;;;;;;;;;5071533;27;20074;-82
2021/12/07 11:56:10;;;;;;;9.73;4.32;;;;;;;;;;5057524;28;20850;-82
2021/12/07 11:58:36;;;;;;;7.72;4.10;;;;;;;;;;5077217;28;20362;-82
2021/12/07 12:01:06;;;;;;;10.57;4.28;;;;;;;;;;5071716;28;20474;-82
2021/12/07 12:03:32;;;;;;;9.48;4.88;;;;;;;;;;5059446;27;20043;-81
2021/12/07 12:05:59;;;;;;;12.15;4.03;;;;;;;;;;5094690;27;20056;-81
2021/12/07 12:08:26;;;;;;;11.73;4.43;;;;;;;;;;5076561;27;20040;-80
2021/12/07 12:11:02;;;;;;;12.60;4.35;;;;;;;;;;5047831;28;20039;-82
2021/12/07 12:13:41;;;;;;;12.25;4.70;;;;;;;;;;5062618;28;20139;-82
2021/12/07 12:16:20;;;;;;;11.55;4.70;;;;;;;;;;5059905;28;20138;-82
2021/12/07 12:19:05;;;;;;;10.25;4.93;;;;;;;;;;5077624;28;20039;-82
2021/12/07 12:21:34;;;;;;;10.65;4.65;;;;;;;;;;5094971;27;20152;-83
2021/12/07 12:24:06;;;;;;;15.07;5.25;;;;;;;;;;5041814;28;20036;-83
2021/12/07 12:26:34;;;;;;;11.70;5.00;;;;;;;;;;5066057;28;20491;-82
2021/12/07 12:29:00;;;;;;;17.00;5.03;;;;;;;;;;5060176;28;20393;-82
2021/12/07 12:31:43;;;;;;;11.55;5.00;;;;;;;;;;5099370;27;20521;-82
2021/12/07 12:34:19;;;;;;;13.27;5.28;;;;;;;;;;5093239;27;20058;-82
2021/12/07 12:36:59;;;;;;;12.20;5.35;;;;;;;;;;5076577;28;20138;-83
2021/12/07 12:39:41;;;;;;;11.77;5.30;;;;;;;;;;5077484;27;20070;-82
2021/12/07 12:42:07;;;;;;;12.95;5.35;;;;;;;;;;5075297;27;20035;-82
2021/12/07 12:44:34;;;;;;;15.27;5.43;;;;;;;;;;5083285;28;20036;-82
2021/12/07 12:47:00;;;;;;;12.48;5.43;;;;;;;;;;5090013;27;20048;-82
2021/12/07 12:49:36;;;;;;;16.13;5.85;;;;;;;;;;5094713;28;20044;-83
2021/12/07 12:52:02;;;;;;;14.95;6.38;;;;;;;;;;5093006;27;20049;-85
2021/12/07 12:54:31;;;;;;;15.48;6.05;;;;;;;;;;5075799;27;20067;-85
2021/12/07 12:57:07;;;;;;;13.48;5.85;;;;;;;;;;5060884;27;20043;-85
2021/12/07 12:59:37;;;;;;;16.35;6.10;;;;;;;;;;5092716;28;20127;-85
2021/12/07 13:02:03;;;;;;;13.13;6.35;;;;;;;;;;5090085;28;20039;-84
2021/12/07 13:04:30;;;;;;;15.65;6.03;;;;;;;;;;5076739;28;20042;-85
2021/12/07 13:07:05;;;;;;;13.45;5.57;;;;;;;;;;5077300;27;20186;-85
2021/12/07 13:09:32;;;;;;;13.23;5.68;;;;;;;;;;5055923;27;20061;-85
2021/12/07 13:12:00;;;;;;;11.32;6.05;;;;;;;;;;5061181;27;20461;-86
2021/12/07 13:14:27;;;;;;;10.18;5.88;;;;;;;;;;5056791;28;20040;-84
2021/12/07 13:17:12;;;;;;;15.48;6.20;;;;;;;;;;5076795;28;20048;-83
2021/12/07 13:19:57;;;;;;;14.40;5.60;;;;;;;;;;5068080;28;20058;-84
2021/12/07 13:22:23;;;;;;;13.85;6.20;;;;;;;;;;5057535;28;20043;-84
2021/12/07 13:24:56;;;;;;;16.92;6.32;;;;;;;;;;5075599;27;20040;-83
2021/12/07 13:27:22;;;;;;;14.35;5.90;;;;;;;;;;5056586;28;20047;-83
2021/12/07 13:29:52;;;;;;;15.63;6.70;;;;;;;;;;5043392;27;20304;-83
2021/12/07 13:32:18;;;;;;;13.75;6.05;;;;;;;;;;5069880;28;20039;-83
2021/12/07 13:34:44;;;;;;;16.40;6.30;;;;;;;;;;5067141;27;20035;-83
2021/12/07 13:37:10;;;;;;;12.43;6.30;;;;;;;;;;5073812;28;20063;-84
2021/12/07 13:39:36;;;;;;;12.50;6.47;;;;;;;;;;5075215;28;20062;-83
2021/12/07 13:42:18;;;;;;;11.95;6.57;;;;;;;;;;5055788;28;20130;-84
2021/12/07 13:45:23;;;;;;;16.13;6.68;;;;;;;;;;5056987;28;20462;-83
2021/12/07 13:47:50;;;;;;;14.13;6.38;;;;;;;;;;4988968;28;20056;-83
2021/12/07 13:50:18;;;;;;;15.65;6.22;;;;;;;;;;4984717;28;20164;-83
2021/12/07 13:52:45;;;;;;;16.70;7.05;;;;;;;;;;5022090;28;20478;-83
2021/12/07 13:55:13;;;;;;;17.52;6.95;;;;;;;;;;5039227;28;20036;-82
2021/12/07 13:57:39;;;;;;;18.85;7.57;;;;;;;;;;5049358;28;20130;-83
2021/12/07 14:00:05;;;;;;;14.10;7.40;;;;;;;;;;5073663;28;20039;-82
2021/12/07 14:02:32;;;;;;;17.85;8.55;;;;;;;;;;5075544;28;20584;-83
2021/12/07 14:05:02;;;;;;;18.50;8.15;;;;;;;;;;5060465;28;20354;-83
2021/12/07 14:07:28;;;;;;;12.65;7.75;;;;;;;;;;5057685;28;20446;-83
2021/12/07 14:09:54;;;;;;;17.63;8.93;;;;;;;;;;5063104;28;20785;-83
2021/12/07 14:12:21;;;;;;;17.08;8.93;;;;;;;;;;5091523;28;20504;-83
2021/12/07 14:14:47;;;;;;;15.23;8.50;;;;;;;;;;5061196;28;20537;-83
2021/12/07 14:17:14;;;;;;;17.65;8.52;;;;;;;;;;5040125;28;20040;-83
2021/12/07 14:19:40;;;;;;;12.73;8.82;;;;;;;;;;5061659;28;20051;-83
2021/12/07 14:22:06;;;;;;;12.65;8.05;;;;;;;;;;5040319;27;20615;-82
2021/12/07 14:24:32;;;;;;;17.95;9.20;;;;;;;;;;5059544;28;20051;-81
2021/12/07 14:26:59;;;;;;;17.42;10.00;;;;;;;;;;5062445;28;20095;-82
2021/12/07 14:29:26;;;;;;;12.95;8.60;;;;;;;;;;5075084;28;20051;-83
2021/12/07 14:31:53;;;;;;;20.30;9.98;;;;;;;;;;5059047;28;20063;-83
2021/12/07 14:34:32;;;;;;;16.08;9.70;;;;;;;;;;5074337;28;20047;-83
2021/12/07 14:37:04;;;;;;;19.13;9.90;;;;;;;;;;5075728;28;20132;-82
2021/12/07 14:39:31;;;;;;;18.33;8.98;;;;;;;;;;5040665;28;20862;-82
2021/12/07 14:42:05;;;;;;;23.98;10.55;;;;;;;;;;5055396;28;20067;-81
2021/12/07 14:44:32;;;;;;;17.98;10.07;;;;;;;;;;5074594;28;20051;-81
2021/12/07 14:47:00;;;;;;;19.55;10.32;;;;;;;;;;5049200;28;20051;-82
2021/12/07 14:49:26;;;;;;;19.48;9.65;;;;;;;;;;5060653;28;20068;-83
2021/12/07 14:51:52;;;;;;;18.55;10.27;;;;;;;;;;5060268;28;20043;-82
2021/12/07 14:54:18;;;;;;;22.73;10.70;;;;;;;;;;5039900;28;20166;-83
2021/12/07 14:56:44;;;;;;;20.67;9.73;;;;;;;;;;5046339;28;20134;-83
2021/12/07 14:59:17;;;;;;;22.13;11.00;;;;;;;;;;5057404;28;20047;-82
2021/12/07 15:01:44;;;;;;;18.35;9.85;;;;;;;;;;5090191;28;20048;-83
2021/12/07 15:04:11;;;;;;;19.10;11.00;;;;;;;;;;5086294;28;20055;-83
2021/12/07 15:06:39;;;;;;;23.20;11.68;;;;;;;;;;5114687;28;20113;-83
2021/12/07 15:09:07;;;;;;;21.70;11.20;;;;;;;;;;5074851;28;20040;-83
2021/12/07 15:11:41;;;;;;;26.27;11.93;;;;;;;;;;5065002;28;20047;-83
2021/12/07 15:14:07;;;;;;;23.10;11.18;;;;;;;;;;5090570;28;20456;-83
2021/12/07 15:16:35;;;;;;;21.75;11.45;;;;;;;;;;5061998;28;20062;-83
2021/12/07 15:19:01;;;;;;;18.52;11.80;;;;;;;;;;5073377;28;20051;-83
2021/12/07 15:21:30;;;;;;;20.90;11.82;;;;;;;;;;5054791;28;20371;-83
2021/12/07 15:23:57;;;;;;;22.63;12.05;;;;;;;;;;5051128;28;20104;-82
2021/12/07 15:26:24;;;;;;;24.10;12.60;;;;;;;;;;5040670;28;20131;-83
2021/12/07 15:29:09;;;;;;;23.35;11.70;;;;;;;;;;5061460;28;20047;-83
2021/12/07 15:31:36;;;;;;;21.60;12.15;;;;;;;;;;5074861;28;20055;-82
2021/12/07 15:34:02;;;;;;;23.05;11.65;;;;;;;;;;5100831;27;20086;-83
2021/12/07 15:36:29;;;;;;;23.95;11.98;;;;;;;;;;5052714;28;20078;-84
2021/12/07 15:39:09;;;;;;;24.67;11.73;;;;;;;;;;5060299;28;20101;-82
2021/12/07 15:41:36;;;;;;;25.23;13.00;;;;;;;;;;5058633;28;20047;-82
2021/12/07 15:44:02;;;;;;;26.38;12.90;;;;;;;;;;5056765;28;20051;-82
2021/12/07 15:46:28;;;;;;;23.77;12.00;;;;;;;;;;5050702;28;20424;-83
2021/12/07 15:48:56;;;;;;;19.75;12.48;;;;;;;;;;5062715;28;20036;-83
2021/12/07 15:51:22;;;;;;;24.00;11.43;;;;;;;;;;5057219;28;20051;-83
2021/12/07 15:53:48;;;;;;;27.35;14.15;;;;;;;;;;5058814;28;20498;-82
2021/12/07 15:56:22;;;;;;;25.80;14.40;;;;;;;;;;5074557;28;20197;-82
2021/12/07 15:58:48;;;;;;;24.80;13.82;;;;;;;;;;5056771;28;20052;-82
2021/12/07 16:01:20;;;;;;;25.35;13.73;;;;;;;;;;5056823;28;20056;-82
2021/12/07 16:03:47;;;;;;;27.38;15.07;;;;;;;;;;5046210;28;20043;-83
2021/12/07 16:06:22;;;;;;;28.05;14.88;;;;;;;;;;5039624;28;20149;-82
2021/12/07 16:08:48;;;;;;;26.48;15.40;;;;;;;;;;5055432;28;20039;-82
2021/12/07 16:11:15;;;;;;;26.20;15.30;;;;;;;;;;5070320;28;20050;-83
2021/12/07 16:13:46;;;;;;;28.27;16.20;;;;;;;;;;5064651;28;20043;-83
2021/12/07 16:16:20;;;;;;;26.73;16.08;;;;;;;;;;5047846;28;20043;-79
2021/12/07 16:18:46;;;;;;;26.88;15.63;;;;;;;;;;5044122;28;20514;-81
2021/12/07 16:21:14;;;;;;;44.78;36.50;;;;;;;;;;5041787;28;20076;-81
2021/12/07 16:23:44;;;;;;;32.75;19.25;;;;;;;;;;5062384;28;20465;-81